createdAt,value
2016-09-07T00:01:02.933Z,21.80
2016-09-07T00:01:35.532Z,21.79
2016-09-07T00:02:41.786Z,21.78
2016-09-07T00:03:41.412Z,21.79
2016-09-07T00:04:30.947Z,21.80
2016-09-07T00:05:37.389Z,21.79
2016-09-07T00:06:37.116Z,21.78
2016-09-07T00:07:34.356Z,21.79
2016-09-07T00:08:43.309Z,21.78
2016-09-07T00:09:33.657Z,21.78
2016-09-07T00:10:34.211Z,21.78
2016-09-07T00:11:34.772Z,21.79
2016-09-07T00:12:44.077Z,21.78
2016-09-07T00:13:37.489Z,21.78
2016-09-07T00:14:32.744Z,21.78
2016-09-07T00:15:34.427Z,21.78
2016-09-07T00:16:39.206Z,21.78
2016-09-07T00:17:34.822Z,21.78
2016-09-07T00:18:49.851Z,21.78
2016-09-07T00:19:39.213Z,21.78
2016-09-07T00:20:36.473Z,21.77
2016-09-07T00:21:34.426Z,21.77
2016-09-07T00:22:37.801Z,21.78
2016-09-07T00:23:35.123Z,21.78
2016-09-07T00:24:44.260Z,21.78
2016-09-07T00:25:51.266Z,21.78
2016-09-07T00:26:34.407Z,21.78
2016-09-07T00:27:34.644Z,21.77
2016-09-07T00:28:54.844Z,21.77
2016-09-07T00:29:36.806Z,21.77
2016-09-07T00:30:34.425Z,21.77
2016-09-07T00:31:33.222Z,21.77
2016-09-07T00:32:50.356Z,21.77
2016-09-07T00:33:49.083Z,21.77
2016-09-07T00:34:52.951Z,21.77
2016-09-07T00:35:38.926Z,21.76
2016-09-07T00:36:39.050Z,22.31
2016-09-07T00:37:38.841Z,22.36
2016-09-07T00:38:35.055Z,21.86
2016-09-07T00:39:32.196Z,21.81
2016-09-07T00:40:34.381Z,21.79
2016-09-07T00:41:33.556Z,21.78
2016-09-07T00:42:38.801Z,21.77
2016-09-07T00:43:33.751Z,21.77
2016-09-07T00:44:37.673Z,21.76
2016-09-07T00:45:39.679Z,21.77
2016-09-07T00:46:35.250Z,21.77
2016-09-07T00:47:34.152Z,21.76
2016-09-07T00:48:39.011Z,21.77
2016-09-07T00:49:34.841Z,21.76
2016-09-07T00:50:34.371Z,21.76
2016-09-07T00:51:35.344Z,21.76
2016-09-07T00:52:45.504Z,21.76
2016-09-07T00:53:34.660Z,21.76
2016-09-07T00:54:40.036Z,21.76
2016-09-07T00:55:34.769Z,21.76
2016-09-07T00:56:34.361Z,21.76
2016-09-07T00:57:38.022Z,21.75
2016-09-07T00:58:38.325Z,21.75
2016-09-07T00:59:50.335Z,21.75
2016-09-07T01:00:32.998Z,21.75
2016-09-07T01:01:38.975Z,21.75
2016-09-07T01:02:42.004Z,21.76
2016-09-07T01:03:30.604Z,21.75
2016-09-07T01:04:38.830Z,21.75
2016-09-07T01:05:46.938Z,21.75
2016-09-07T01:06:42.012Z,21.75
2016-09-07T01:07:33.645Z,21.74
2016-09-07T01:08:34.315Z,21.74
2016-09-07T01:09:54.279Z,21.74
2016-09-07T01:10:42.636Z,21.74
2016-09-07T01:11:52.762Z,21.74
2016-09-07T01:12:36.409Z,21.74
2016-09-07T01:13:38.730Z,21.74
2016-09-07T01:14:43.098Z,21.74
2016-09-07T01:15:34.817Z,21.74
2016-09-07T01:16:51.887Z,21.76
2016-09-07T01:17:33.045Z,21.75
2016-09-07T01:18:33.870Z,21.74
2016-09-07T01:19:55.921Z,21.74
2016-09-07T01:20:50.579Z,21.73
2016-09-07T01:21:39.203Z,21.74
2016-09-07T01:22:48.866Z,21.73
2016-09-07T01:23:42.791Z,21.74
2016-09-07T01:24:36.916Z,21.74
2016-09-07T01:25:35.064Z,21.73
2016-09-07T01:26:37.115Z,21.73
2016-09-07T01:27:42.491Z,21.73
2016-09-07T01:28:38.699Z,21.73
2016-09-07T01:29:40.016Z,21.73
2016-09-07T01:30:32.763Z,21.73
2016-09-07T01:31:51.204Z,21.73
2016-09-07T01:32:26.486Z,21.73
2016-09-07T01:33:37.292Z,21.72
2016-09-07T01:34:35.759Z,21.73
2016-09-07T01:35:42.936Z,21.75
2016-09-07T01:36:33.282Z,21.72
2016-09-07T01:37:38.709Z,21.72
2016-09-07T01:38:34.394Z,21.72
2016-09-07T01:39:35.209Z,21.72
2016-09-07T01:40:45.443Z,21.71
2016-09-07T01:41:34.705Z,21.71
2016-09-07T01:42:34.691Z,21.71
2016-09-07T01:43:34.751Z,21.71
2016-09-07T01:44:41.637Z,21.71
2016-09-07T01:45:47.764Z,21.71
2016-09-07T01:46:31.966Z,21.71
2016-09-07T01:47:35.796Z,21.71
2016-09-07T01:48:48.418Z,21.71
2016-09-07T01:49:27.495Z,21.71
2016-09-07T01:50:47.961Z,21.71
2016-09-07T01:51:32.195Z,21.71
2016-09-07T01:52:53.490Z,21.71
2016-09-07T01:53:41.599Z,21.72
2016-09-07T01:54:50.202Z,21.71
2016-09-07T01:55:34.139Z,21.71
2016-09-07T01:56:50.800Z,21.70
2016-09-07T01:57:43.828Z,21.71
2016-09-07T01:58:32.848Z,21.73
2016-09-07T01:59:39.520Z,21.70
2016-09-07T02:00:32.827Z,21.71
2016-09-07T02:01:32.347Z,21.70
2016-09-07T02:02:48.923Z,21.71
2016-09-07T02:03:37.924Z,21.71
2016-09-07T02:04:39.394Z,21.71
2016-09-07T02:05:49.436Z,21.70
2016-09-07T02:06:37.257Z,21.71
2016-09-07T02:07:34.152Z,21.71
2016-09-07T02:08:41.399Z,21.70
2016-09-07T02:09:38.422Z,21.70
2016-09-07T02:10:38.480Z,21.71
2016-09-07T02:11:39.500Z,21.71
2016-09-07T02:12:32.179Z,21.70
2016-09-07T02:13:35.033Z,21.70
2016-09-07T02:14:37.997Z,21.70
2016-09-07T02:15:34.138Z,21.70
2016-09-07T02:16:36.806Z,21.69
2016-09-07T02:17:33.986Z,21.70
2016-09-07T02:18:34.784Z,21.69
2016-09-07T02:19:34.725Z,21.70
2016-09-07T02:20:35.763Z,21.70
2016-09-07T02:21:36.360Z,21.69
2016-09-07T02:22:38.496Z,21.69
2016-09-07T02:23:38.749Z,21.69
2016-09-07T02:24:37.749Z,21.69
2016-09-07T02:25:34.219Z,21.69
2016-09-07T02:26:39.174Z,21.69
2016-09-07T02:27:42.048Z,21.69
2016-09-07T02:28:33.807Z,21.69
2016-09-07T02:29:35.907Z,21.69
2016-09-07T02:30:35.408Z,21.69
2016-09-07T02:31:39.104Z,21.69
2016-09-07T02:32:47.970Z,21.68
2016-09-07T02:33:31.118Z,21.68
2016-09-07T02:34:39.406Z,21.69
2016-09-07T02:35:37.194Z,21.68
2016-09-07T02:36:39.678Z,21.68
2016-09-07T02:37:41.115Z,21.68
2016-09-07T02:38:40.272Z,21.68
2016-09-07T02:39:34.252Z,21.69
2016-09-07T02:40:34.905Z,21.68
2016-09-07T02:41:34.871Z,21.67
2016-09-07T02:42:33.913Z,21.68
2016-09-07T02:43:37.125Z,21.68
2016-09-07T02:44:34.377Z,21.68
2016-09-07T02:45:34.599Z,21.68
2016-09-07T02:46:41.895Z,21.68
2016-09-07T02:47:37.171Z,21.67
2016-09-07T02:48:35.086Z,21.67
2016-09-07T02:49:37.383Z,21.67
2016-09-07T02:50:34.780Z,21.68
2016-09-07T02:51:38.596Z,21.69
2016-09-07T02:52:39.852Z,21.68
2016-09-07T02:53:43.025Z,21.67
2016-09-07T02:54:34.825Z,21.68
2016-09-07T02:55:41.526Z,21.66
2016-09-07T02:56:38.770Z,21.66
2016-09-07T02:57:34.913Z,21.67
2016-09-07T02:58:39.013Z,21.66
2016-09-07T02:59:39.625Z,21.71
2016-09-07T03:00:36.913Z,21.66
2016-09-07T03:01:35.405Z,21.66
2016-09-07T03:02:39.260Z,21.70
2016-09-07T03:03:39.123Z,21.66
2016-09-07T03:04:34.915Z,21.65
2016-09-07T03:05:35.233Z,21.65
2016-09-07T03:06:35.641Z,21.66
2016-09-07T03:07:35.165Z,21.65
2016-09-07T03:08:34.563Z,21.66
2016-09-07T03:09:39.172Z,21.65
2016-09-07T03:10:39.124Z,21.65
2016-09-07T03:11:34.467Z,21.65
2016-09-07T03:12:37.044Z,21.65
2016-09-07T03:13:34.412Z,21.66
2016-09-07T03:14:34.869Z,21.65
2016-09-07T03:15:39.457Z,21.65
2016-09-07T03:16:34.623Z,21.64
2016-09-07T03:17:43.055Z,21.65
2016-09-07T03:18:38.715Z,21.64
2016-09-07T03:19:34.562Z,21.65
2016-09-07T03:20:31.853Z,21.64
2016-09-07T03:21:33.644Z,21.65
2016-09-07T03:22:38.161Z,21.64
2016-09-07T03:23:34.988Z,21.64
2016-09-07T03:24:34.451Z,21.71
2016-09-07T03:25:34.235Z,21.64
2016-09-07T03:26:38.162Z,21.67
2016-09-07T03:27:33.884Z,21.63
2016-09-07T03:28:40.512Z,21.64
2016-09-07T03:29:33.954Z,21.64
2016-09-07T03:30:38.828Z,21.63
2016-09-07T03:31:49.671Z,21.63
2016-09-07T03:32:33.075Z,21.63
2016-09-07T03:33:50.477Z,21.63
2016-09-07T03:34:41.851Z,21.63
2016-09-07T03:35:34.242Z,21.63
2016-09-07T03:36:34.616Z,21.63
2016-09-07T03:37:37.792Z,21.63
2016-09-07T03:38:39.143Z,21.66
2016-09-07T03:39:39.647Z,21.62
2016-09-07T03:40:34.961Z,21.63
2016-09-07T03:41:43.043Z,21.63
2016-09-07T03:42:34.221Z,21.63
2016-09-07T03:43:39.000Z,21.61
2016-09-07T03:44:33.962Z,21.63
2016-09-07T03:45:39.173Z,21.63
2016-09-07T03:46:43.554Z,21.63
2016-09-07T03:47:31.542Z,21.63
2016-09-07T03:48:34.740Z,21.62
2016-09-07T03:49:40.221Z,21.62
2016-09-07T03:50:43.133Z,21.62
2016-09-07T03:51:34.177Z,21.62
2016-09-07T03:52:35.040Z,21.62
2016-09-07T03:53:37.713Z,21.62
2016-09-07T03:54:38.775Z,21.62
2016-09-07T03:55:37.962Z,21.62
2016-09-07T03:56:34.607Z,21.61
2016-09-07T03:57:52.100Z,21.62
2016-09-07T03:58:52.003Z,21.62
2016-09-07T03:59:32.801Z,21.62
2016-09-07T04:00:38.533Z,21.65
2016-09-07T04:01:38.520Z,21.61
2016-09-07T04:02:33.417Z,21.61
2016-09-07T04:03:38.816Z,21.61
2016-09-07T04:04:28.587Z,21.61
2016-09-07T04:05:39.549Z,21.60
2016-09-07T04:06:27.118Z,21.60
2016-09-07T04:07:34.719Z,21.60
2016-09-07T04:08:31.740Z,21.61
2016-09-07T04:09:35.087Z,21.61
2016-09-07T04:10:33.927Z,21.60
2016-09-07T04:11:38.285Z,21.61
2016-09-07T04:12:32.838Z,21.61
2016-09-07T04:13:40.610Z,21.62
2016-09-07T04:14:34.413Z,21.63
2016-09-07T04:15:34.753Z,21.60
2016-09-07T04:16:43.146Z,21.62
2016-09-07T04:17:39.351Z,21.60
2016-09-07T04:18:36.157Z,21.59
2016-09-07T04:19:35.032Z,21.59
2016-09-07T04:20:34.890Z,21.59
2016-09-07T04:21:39.433Z,21.59
2016-09-07T04:22:34.180Z,21.59
2016-09-07T04:23:35.660Z,21.59
2016-09-07T04:24:35.264Z,21.59
2016-09-07T04:25:43.743Z,21.59
2016-09-07T04:26:39.158Z,21.59
2016-09-07T04:27:39.390Z,21.59
2016-09-07T04:28:43.462Z,21.60
2016-09-07T04:29:38.783Z,21.60
2016-09-07T04:30:38.268Z,21.59
2016-09-07T04:31:33.163Z,21.61
2016-09-07T04:32:43.038Z,21.59
2016-09-07T04:33:50.470Z,21.59
2016-09-07T04:34:34.927Z,21.59
2016-09-07T04:35:38.675Z,21.59
2016-09-07T04:36:40.528Z,22.13
2016-09-07T04:37:34.178Z,21.84
2016-09-07T04:38:34.595Z,21.67
2016-09-07T04:39:45.718Z,21.62
2016-09-07T04:40:29.006Z,21.61
2016-09-07T04:41:34.768Z,21.60
2016-09-07T04:42:34.569Z,21.60
2016-09-07T04:43:38.312Z,21.59
2016-09-07T04:44:39.922Z,21.59
2016-09-07T04:45:39.210Z,21.59
2016-09-07T04:46:33.504Z,21.60
2016-09-07T04:47:29.570Z,21.59
2016-09-07T04:48:38.236Z,21.59
2016-09-07T04:49:34.639Z,21.58
2016-09-07T04:50:33.422Z,21.64
2016-09-07T04:51:34.251Z,21.59
2016-09-07T04:52:34.095Z,21.58
2016-09-07T04:53:41.187Z,21.58
2016-09-07T04:54:43.164Z,21.64
2016-09-07T04:55:35.147Z,21.59
2016-09-07T04:56:39.151Z,21.62
2016-09-07T04:57:39.779Z,21.58
2016-09-07T04:58:34.919Z,21.58
2016-09-07T04:59:34.903Z,21.57
2016-09-07T05:00:33.676Z,21.57
2016-09-07T05:01:32.159Z,21.57
2016-09-07T05:02:54.634Z,22.12
2016-09-07T05:03:32.995Z,22.16
2016-09-07T05:04:31.670Z,22.20
2016-09-07T05:05:36.685Z,22.21
2016-09-07T05:06:34.141Z,22.22
2016-09-07T05:07:37.901Z,22.22
2016-09-07T05:08:39.190Z,22.23
2016-09-07T05:09:31.954Z,22.23
2016-09-07T05:11:16.445Z,22.24
2016-09-07T05:11:42.443Z,21.94
2016-09-07T05:12:37.369Z,21.70
2016-09-07T05:13:31.177Z,21.64
2016-09-07T05:14:50.321Z,21.61
2016-09-07T05:15:34.018Z,21.61
2016-09-07T05:16:34.136Z,21.60
2016-09-07T05:17:34.574Z,21.59
2016-09-07T05:18:32.193Z,21.59
2016-09-07T05:19:34.742Z,21.58
2016-09-07T05:20:28.940Z,21.58
2016-09-07T05:21:44.086Z,21.58
2016-09-07T05:22:33.909Z,21.58
2016-09-07T05:23:42.470Z,21.65
2016-09-07T05:24:37.948Z,21.58
2016-09-07T05:25:34.947Z,21.58
2016-09-07T05:26:34.658Z,21.59
2016-09-07T05:27:33.265Z,21.59
2016-09-07T05:28:35.111Z,21.59
2016-09-07T05:29:33.561Z,21.59
2016-09-07T05:30:27.772Z,21.59
2016-09-07T05:31:35.117Z,21.65
2016-09-07T05:32:32.669Z,21.63
2016-09-07T05:33:34.360Z,21.63
2016-09-07T05:34:39.209Z,21.63
2016-09-07T05:35:33.269Z,22.19
2016-09-07T05:36:39.383Z,22.27
2016-09-07T05:37:31.255Z,22.29
2016-09-07T05:38:38.878Z,22.31
2016-09-07T05:39:32.564Z,22.34
2016-09-07T05:40:40.375Z,22.36
2016-09-07T05:41:38.919Z,22.38
2016-09-07T05:42:42.928Z,21.84
2016-09-07T05:43:29.165Z,21.78
2016-09-07T05:44:38.447Z,21.77
2016-09-07T05:45:31.312Z,21.76
2016-09-07T05:46:35.580Z,21.75
2016-09-07T05:47:33.926Z,21.75
2016-09-07T05:48:34.490Z,21.73
2016-09-07T05:49:38.497Z,21.74
2016-09-07T05:50:36.930Z,21.70
2016-09-07T05:51:26.264Z,21.72
2016-09-07T05:52:33.416Z,21.70
2016-09-07T05:53:39.081Z,21.70
2016-09-07T05:54:28.519Z,21.70
2016-09-07T05:55:38.327Z,21.71
2016-09-07T05:56:14.178Z,21.74
2016-09-07T05:57:34.159Z,22.24
2016-09-07T05:58:31.346Z,22.32
2016-09-07T05:59:26.807Z,22.36
2016-09-07T06:00:37.171Z,22.37
2016-09-07T06:01:30.239Z,21.84
2016-09-07T06:02:39.023Z,21.77
2016-09-07T06:03:39.460Z,21.43
2016-09-07T06:04:38.580Z,21.18
2016-09-07T06:05:32.105Z,20.89
2016-09-07T06:06:40.179Z,20.77
2016-09-07T06:07:33.910Z,20.65
2016-09-07T06:08:42.737Z,20.50
2016-09-07T06:09:34.744Z,20.40
2016-09-07T06:10:31.783Z,20.32
2016-09-07T06:11:34.151Z,20.25
2016-09-07T06:12:34.388Z,20.24
2016-09-07T06:13:34.851Z,20.18
2016-09-07T06:14:36.449Z,20.17
2016-09-07T06:15:39.821Z,20.09
2016-09-07T06:16:38.642Z,20.07
2016-09-07T06:17:33.781Z,20.04
2016-09-07T06:18:33.484Z,20.05
2016-09-07T06:19:36.474Z,19.96
2016-09-07T06:20:52.059Z,19.94
2016-09-07T06:21:37.520Z,19.86
2016-09-07T06:22:41.829Z,19.87
2016-09-07T06:23:38.308Z,19.96
2016-09-07T06:24:50.631Z,20.13
2016-09-07T06:25:34.965Z,20.31
2016-09-07T06:26:38.766Z,20.44
2016-09-07T06:27:32.620Z,20.52
2016-09-07T06:28:35.222Z,20.61
2016-09-07T06:29:38.660Z,20.67
2016-09-07T06:30:32.815Z,20.74
2016-09-07T06:31:40.390Z,20.77
2016-09-07T06:32:41.878Z,20.82
2016-09-07T06:33:37.184Z,20.85
2016-09-07T06:34:29.089Z,20.88
2016-09-07T06:35:38.692Z,20.91
2016-09-07T06:36:34.914Z,20.94
2016-09-07T06:37:38.058Z,20.99
2016-09-07T06:38:38.236Z,20.99
2016-09-07T06:39:38.728Z,21.01
2016-09-07T06:40:33.438Z,21.03
2016-09-07T06:41:54.728Z,21.05
2016-09-07T06:42:32.671Z,21.07
2016-09-07T06:43:36.667Z,21.08
2016-09-07T06:44:38.343Z,21.10
2016-09-07T06:45:34.643Z,21.12
2016-09-07T06:46:28.759Z,21.12
2016-09-07T06:47:33.346Z,21.14
2016-09-07T06:48:34.170Z,21.16
2016-09-07T06:49:28.569Z,21.16
2016-09-07T06:50:40.586Z,21.18
2016-09-07T06:51:39.737Z,21.18
2016-09-07T06:52:31.927Z,21.19
2016-09-07T06:53:39.851Z,21.20
2016-09-07T06:54:38.864Z,21.21
2016-09-07T06:55:34.400Z,21.22
2016-09-07T06:56:51.604Z,21.22
2016-09-07T06:57:39.430Z,21.24
2016-09-07T06:58:52.384Z,21.24
2016-09-07T06:59:36.384Z,21.25
2016-09-07T07:00:39.426Z,21.26
2016-09-07T07:01:34.151Z,21.27
2016-09-07T07:02:42.086Z,21.26
2016-09-07T07:03:34.455Z,21.28
2016-09-07T07:04:33.619Z,21.29
2016-09-07T07:05:43.313Z,21.29
2016-09-07T07:06:38.140Z,21.35
2016-09-07T07:07:35.079Z,21.30
2016-09-07T07:08:39.626Z,21.31
2016-09-07T07:09:41.128Z,21.31
2016-09-07T07:10:29.021Z,21.31
2016-09-07T07:11:38.966Z,21.32
2016-09-07T07:12:39.501Z,21.33
2016-09-07T07:13:38.863Z,21.33
2016-09-07T07:14:28.904Z,21.33
2016-09-07T07:15:40.975Z,21.34
2016-09-07T07:16:38.128Z,21.40
2016-09-07T07:17:34.388Z,21.35
2016-09-07T07:18:41.486Z,21.36
2016-09-07T07:19:47.391Z,21.37
2016-09-07T07:20:35.388Z,21.36
2016-09-07T07:21:33.734Z,21.37
2016-09-07T07:22:30.559Z,21.37
2016-09-07T07:23:39.820Z,21.38
2016-09-07T07:24:39.134Z,21.39
2016-09-07T07:25:39.807Z,21.38
2016-09-07T07:26:51.759Z,21.38
2016-09-07T07:27:33.065Z,21.40
2016-09-07T07:28:44.003Z,21.40
2016-09-07T07:29:29.463Z,21.40
2016-09-07T07:30:37.720Z,21.40
2016-09-07T07:31:35.693Z,21.40
2016-09-07T07:32:38.921Z,21.40
2016-09-07T07:33:34.266Z,21.41
2016-09-07T07:34:31.902Z,21.41
2016-09-07T07:35:34.699Z,21.95
2016-09-07T07:36:34.308Z,22.01
2016-09-07T07:37:34.865Z,22.03
2016-09-07T07:38:37.613Z,22.05
2016-09-07T07:39:35.177Z,21.54
2016-09-07T07:40:38.472Z,21.49
2016-09-07T07:41:39.045Z,21.47
2016-09-07T07:42:38.671Z,21.46
2016-09-07T07:43:33.513Z,21.46
2016-09-07T07:44:28.285Z,21.46
2016-09-07T07:45:34.642Z,21.46
2016-09-07T07:46:38.901Z,21.46
2016-09-07T07:47:51.296Z,21.46
2016-09-07T07:48:34.640Z,21.46
2016-09-07T07:49:31.405Z,21.47
2016-09-07T07:50:34.505Z,21.47
2016-09-07T07:51:42.732Z,21.47
2016-09-07T07:52:36.809Z,21.47
2016-09-07T07:53:43.670Z,21.48
2016-09-07T07:54:37.751Z,21.48
2016-09-07T07:55:33.475Z,21.48
2016-09-07T07:56:34.659Z,21.47
2016-09-07T07:57:38.974Z,21.48
2016-09-07T07:58:37.264Z,21.49
2016-09-07T07:59:34.670Z,21.48
2016-09-07T08:00:37.890Z,21.48
2016-09-07T08:01:34.996Z,21.48
2016-09-07T08:02:39.651Z,21.49
2016-09-07T08:03:51.920Z,21.49
2016-09-07T08:04:43.453Z,21.49
2016-09-07T08:05:34.818Z,21.49
2016-09-07T08:06:33.664Z,21.49
2016-09-07T08:07:38.843Z,21.50
2016-09-07T08:08:34.572Z,21.51
2016-09-07T08:09:35.848Z,21.55
2016-09-07T08:10:28.677Z,21.51
2016-09-07T08:11:40.063Z,21.51
2016-09-07T08:12:35.227Z,21.53
2016-09-07T08:13:49.095Z,21.53
2016-09-07T08:14:27.622Z,21.53
2016-09-07T08:16:33.934Z,21.53
2016-09-07T08:17:50.325Z,22.08
2016-09-07T08:18:40.288Z,22.12
2016-09-07T08:19:34.729Z,22.17
2016-09-07T08:20:39.549Z,22.17
2016-09-07T08:21:38.613Z,22.18
2016-09-07T08:22:50.318Z,22.19
2016-09-07T08:23:39.345Z,22.20
2016-09-07T08:24:39.090Z,22.21
2016-09-07T08:25:34.768Z,22.20
2016-09-07T08:26:38.315Z,22.23
2016-09-07T08:27:38.113Z,22.22
2016-09-07T08:28:38.849Z,22.23
2016-09-07T08:29:39.283Z,22.24
2016-09-07T08:30:34.637Z,22.24
2016-09-07T08:31:32.242Z,22.23
2016-09-07T08:32:39.583Z,22.23
2016-09-07T08:33:39.322Z,22.23
2016-09-07T08:34:39.387Z,21.86
2016-09-07T08:35:51.925Z,21.69
2016-09-07T08:36:33.323Z,21.64
2016-09-07T08:37:34.396Z,21.63
2016-09-07T08:38:44.032Z,21.61
2016-09-07T08:39:51.192Z,21.61
2016-09-07T08:40:39.517Z,21.60
2016-09-07T08:41:34.469Z,21.60
2016-09-07T08:42:39.590Z,21.60
2016-09-07T08:43:49.825Z,21.61
2016-09-07T08:44:33.674Z,21.60
2016-09-07T08:45:34.707Z,21.59
2016-09-07T08:46:34.820Z,21.59
2016-09-07T08:47:34.207Z,21.59
2016-09-07T08:48:28.926Z,21.60
2016-09-07T08:49:34.486Z,21.60
2016-09-07T08:50:33.608Z,21.60
2016-09-07T08:51:34.077Z,21.60
2016-09-07T08:52:34.075Z,21.60
2016-09-07T08:53:50.802Z,21.59
2016-09-07T08:54:43.403Z,21.60
2016-09-07T08:55:43.323Z,21.60
2016-09-07T08:56:39.924Z,21.60
2016-09-07T08:57:38.461Z,21.60
2016-09-07T08:58:26.943Z,21.61
2016-09-07T08:59:34.293Z,21.61
2016-09-07T09:00:43.395Z,21.61
2016-09-07T09:01:39.319Z,21.61
2016-09-07T09:02:57.577Z,21.60
2016-09-07T09:03:41.577Z,21.61
2016-09-07T09:04:37.994Z,21.61
2016-09-07T09:05:48.249Z,21.61
2016-09-07T09:06:43.741Z,21.62
2016-09-07T09:07:28.750Z,21.62
2016-09-07T09:08:39.837Z,21.62
2016-09-07T09:09:34.908Z,21.62
2016-09-07T09:10:31.933Z,21.62
2016-09-07T09:11:39.642Z,21.62
2016-09-07T09:12:35.927Z,21.62
2016-09-07T09:13:36.101Z,21.62
2016-09-07T09:14:50.937Z,21.61
2016-09-07T09:15:32.846Z,21.62
2016-09-07T09:16:38.537Z,21.62
2016-09-07T09:17:35.080Z,21.62
2016-09-07T09:18:31.155Z,21.63
2016-09-07T09:19:40.650Z,21.62
2016-09-07T09:20:32.511Z,21.62
2016-09-07T09:21:37.351Z,21.63
2016-09-07T09:22:34.153Z,21.63
2016-09-07T09:23:34.241Z,21.63
2016-09-07T09:24:36.192Z,21.63
2016-09-07T09:25:49.991Z,21.63
2016-09-07T09:26:32.618Z,21.63
2016-09-07T09:27:34.372Z,21.63
2016-09-07T09:28:34.692Z,21.63
2016-09-07T09:29:56.611Z,21.64
2016-09-07T09:30:39.327Z,21.63
2016-09-07T09:31:34.820Z,21.64
2016-09-07T09:32:36.821Z,21.64
2016-09-07T09:33:35.477Z,21.64
2016-09-07T09:34:44.470Z,21.64
2016-09-07T09:35:33.838Z,21.64
2016-09-07T09:36:33.850Z,21.64
2016-09-07T09:37:33.923Z,21.64
2016-09-07T09:38:28.773Z,21.66
2016-09-07T09:39:34.390Z,21.65
2016-09-07T09:40:28.349Z,21.65
2016-09-07T09:41:33.976Z,21.65
2016-09-07T09:42:34.600Z,21.65
2016-09-07T09:43:34.502Z,21.65
2016-09-07T09:44:37.935Z,21.65
2016-09-07T09:45:33.857Z,21.66
2016-09-07T09:46:33.960Z,21.66
2016-09-07T09:47:33.348Z,21.66
2016-09-07T09:48:38.010Z,21.66
2016-09-07T09:49:34.328Z,21.66
2016-09-07T09:50:39.884Z,21.66
2016-09-07T09:51:34.239Z,21.66
2016-09-07T09:52:33.362Z,21.67
2016-09-07T09:53:33.431Z,21.66
2016-09-07T09:54:28.679Z,21.66
2016-09-07T09:55:34.381Z,21.66
2016-09-07T09:56:38.346Z,21.66
2016-09-07T09:57:39.660Z,21.67
2016-09-07T09:58:38.885Z,21.68
2016-09-07T09:59:33.032Z,21.68
2016-09-07T10:00:26.662Z,21.67
2016-09-07T10:01:39.111Z,21.67
2016-09-07T10:02:31.551Z,21.68
2016-09-07T10:03:33.465Z,21.69
2016-09-07T10:04:32.734Z,21.68
2016-09-07T10:05:39.055Z,21.70
2016-09-07T10:06:37.233Z,21.68
2016-09-07T10:07:31.630Z,21.69
2016-09-07T10:08:33.705Z,21.69
2016-09-07T10:09:39.039Z,21.69
2016-09-07T10:10:38.014Z,21.70
2016-09-07T10:11:52.401Z,21.69
2016-09-07T10:12:36.386Z,21.69
2016-09-07T10:13:33.768Z,21.69
2016-09-07T10:14:34.314Z,21.69
2016-09-07T10:15:37.473Z,21.69
2016-09-07T10:16:25.885Z,21.70
2016-09-07T10:17:39.671Z,21.70
2016-09-07T10:18:36.412Z,21.70
2016-09-07T10:19:39.210Z,21.70
2016-09-07T10:20:33.812Z,21.70
2016-09-07T10:21:41.007Z,21.71
2016-09-07T10:22:34.599Z,21.71
2016-09-07T10:23:35.801Z,21.71
2016-09-07T10:24:43.913Z,21.71
2016-09-07T10:25:38.057Z,21.71
2016-09-07T10:26:38.189Z,21.71
2016-09-07T10:27:39.241Z,21.71
2016-09-07T10:28:33.890Z,21.71
2016-09-07T10:29:33.453Z,21.71
2016-09-07T10:30:26.390Z,21.71
2016-09-07T10:31:39.473Z,21.71
2016-09-07T10:32:33.778Z,21.71
2016-09-07T10:33:57.507Z,21.71
2016-09-07T10:34:36.008Z,21.71
2016-09-07T10:35:45.831Z,21.71
2016-09-07T10:36:34.541Z,21.72
2016-09-07T10:37:57.899Z,21.71
2016-09-07T10:39:22.140Z,21.72
2016-09-07T10:39:55.687Z,21.72
2016-09-07T10:40:27.336Z,21.72
2016-09-07T10:41:33.760Z,21.73
2016-09-07T10:42:35.732Z,21.73
2016-09-07T10:43:40.550Z,21.72
2016-09-07T10:44:48.494Z,21.73
2016-09-07T10:45:37.521Z,21.72
2016-09-07T10:46:47.291Z,21.73
2016-09-07T10:47:59.031Z,21.73
2016-09-07T10:49:05.069Z,21.72
2016-09-07T10:49:29.505Z,21.73
2016-09-07T10:50:39.021Z,21.72
2016-09-07T10:51:39.058Z,21.73
2016-09-07T10:52:38.707Z,21.73
2016-09-07T10:53:39.556Z,21.73
2016-09-07T10:54:39.367Z,21.74
2016-09-07T10:55:39.583Z,21.76
2016-09-07T10:56:39.305Z,21.73
2016-09-07T10:57:51.939Z,22.27
2016-09-07T10:58:35.918Z,22.32
2016-09-07T10:59:44.519Z,22.35
2016-09-07T11:00:28.128Z,21.84
2016-09-07T11:01:34.220Z,21.79
2016-09-07T11:02:37.376Z,21.77
2016-09-07T11:03:34.996Z,21.75
2016-09-07T11:05:35.391Z,21.76
2016-09-07T11:06:44.795Z,21.74
2016-09-07T11:07:38.249Z,21.75
2016-09-07T11:08:39.423Z,21.76
2016-09-07T11:09:40.578Z,21.76
2016-09-07T11:10:41.917Z,21.76
2016-09-07T11:11:39.681Z,21.84
2016-09-07T11:12:24.698Z,21.76
2016-09-07T11:13:35.095Z,21.78
2016-09-07T11:14:27.022Z,21.77
2016-09-07T11:15:38.595Z,21.77
2016-09-07T11:16:43.507Z,21.76
2016-09-07T11:17:55.209Z,21.77
2016-09-07T11:18:40.483Z,21.76
2016-09-07T11:19:57.756Z,21.77
2016-09-07T11:20:35.945Z,21.76
2016-09-07T11:21:36.139Z,21.76
2016-09-07T11:22:37.569Z,21.77
2016-09-07T11:23:36.356Z,21.76
2016-09-07T11:24:36.883Z,21.77
2016-09-07T11:25:34.894Z,21.77
2016-09-07T11:26:34.229Z,21.77
2016-09-07T11:27:33.777Z,21.77
2016-09-07T11:28:26.898Z,21.78
2016-09-07T11:29:42.926Z,21.78
2016-09-07T11:30:34.504Z,21.78
2016-09-07T11:31:34.883Z,21.77
2016-09-07T11:32:30.852Z,21.78
2016-09-07T11:33:33.246Z,21.78
2016-09-07T11:34:33.004Z,21.78
2016-09-07T11:35:29.460Z,21.83
2016-09-07T11:36:31.999Z,21.77
2016-09-07T11:37:36.306Z,22.32
2016-09-07T11:38:37.153Z,22.38
2016-09-07T11:39:33.013Z,22.40
2016-09-07T11:40:38.133Z,22.41
2016-09-07T11:41:37.566Z,22.04
2016-09-07T11:42:45.420Z,21.88
2016-09-07T11:43:37.761Z,21.84
2016-09-07T11:44:54.532Z,21.81
2016-09-07T11:45:38.229Z,21.80
2016-09-07T11:46:32.722Z,21.80
2016-09-07T11:47:32.778Z,21.80
2016-09-07T11:48:28.187Z,21.85
2016-09-07T11:49:33.864Z,21.80
2016-09-07T11:50:37.946Z,21.79
2016-09-07T11:51:31.930Z,21.80
2016-09-07T11:52:37.843Z,21.78
2016-09-07T11:53:27.015Z,21.79
2016-09-07T11:54:33.396Z,21.80
2016-09-07T11:55:38.444Z,21.78
2016-09-07T11:56:38.014Z,21.80
2016-09-07T11:57:34.236Z,21.79
2016-09-07T11:58:36.959Z,21.79
2016-09-07T11:59:39.540Z,21.79
2016-09-07T12:00:51.713Z,21.79
2016-09-07T12:01:27.531Z,21.79
2016-09-07T12:02:33.593Z,21.79
2016-09-07T12:03:38.859Z,21.79
2016-09-07T12:04:38.117Z,21.79
2016-09-07T12:05:38.701Z,21.79
2016-09-07T12:06:32.822Z,21.79
2016-09-07T12:07:33.220Z,21.79
2016-09-07T12:08:39.756Z,21.79
2016-09-07T12:09:43.497Z,21.79
2016-09-07T12:10:41.599Z,21.79
2016-09-07T12:11:34.899Z,21.80
2016-09-07T12:12:34.089Z,21.80
2016-09-07T12:13:39.568Z,21.80
2016-09-07T12:14:34.952Z,21.80
2016-09-07T12:15:38.358Z,21.80
2016-09-07T12:16:29.171Z,21.80
2016-09-07T12:17:32.702Z,21.80
2016-09-07T12:18:39.055Z,21.81
2016-09-07T12:19:28.915Z,21.80
2016-09-07T12:20:29.468Z,21.81
2016-09-07T12:21:36.662Z,21.84
2016-09-07T12:22:34.392Z,21.80
2016-09-07T12:23:33.207Z,21.80
2016-09-07T12:24:29.347Z,21.96
2016-09-07T12:25:32.998Z,21.85
2016-09-07T12:26:35.093Z,21.83
2016-09-07T12:27:33.357Z,21.82
2016-09-07T12:28:22.954Z,21.81
2016-09-07T12:29:40.346Z,21.81
2016-09-07T12:30:32.858Z,21.81
2016-09-07T12:31:36.514Z,21.81
2016-09-07T12:32:31.605Z,21.81
2016-09-07T12:34:01.747Z,21.81
2016-09-07T12:34:31.949Z,21.81
2016-09-07T12:35:36.459Z,21.81
2016-09-07T12:36:35.515Z,21.81
2016-09-07T12:37:31.037Z,21.81
2016-09-07T12:38:33.740Z,21.81
2016-09-07T12:39:34.091Z,21.81
2016-09-07T12:40:33.591Z,21.81
2016-09-07T12:41:34.151Z,21.81
2016-09-07T12:42:39.230Z,21.80
2016-09-07T12:43:32.885Z,21.81
2016-09-07T12:44:22.943Z,21.80
2016-09-07T12:45:43.876Z,21.81
2016-09-07T12:46:37.966Z,21.81
2016-09-07T12:47:33.997Z,21.81
2016-09-07T12:48:28.056Z,21.80
2016-09-07T12:49:42.282Z,21.81
2016-09-07T12:50:33.533Z,21.83
2016-09-07T12:51:19.260Z,21.81
2016-09-07T12:52:27.736Z,21.81
2016-09-07T12:53:33.066Z,21.81
2016-09-07T12:54:26.113Z,21.81